Charter Quote
Worldwide +1-877-727-2538 Call
Select Language Lang
SAFETY RELIABILITY EXPERIENCE

Private Jet Charter Services - Mianyang Airport (ZUMY)

Paramount Business Jets offers private jet charter flights and luxury airliner charters to and from Mianyang Airport.

AIRPORT INFORMATION
ICAOZUMY
LOCATIONMianyang, China
FACILITY TYPEAIRPORT

At Paramount Business Jets you can hire chartered private jets to and from Mianyang Airport with as little as 4 hours of notice. All flights booked via Paramount Business Jets are operated by certified direct air carriers that meet and exceed the FAA part 135 and 121 protocol or a foreign equivalent safety authority. Furthermore, Paramount Business Jets subscribes to ARGUS for their third party safety checks of operators, aircraft, and crews prior each and every flight to and from Mianyang Airport and worldwide.

  • Quote a trip using Mianyang Airport or call us 24/7 - 365 days a year at +1-877-727-2538.
Questions? Call +1-877-727-2538

METAR Weather Data at Mianyang Airport, ZUMY

STATIONZUMY
OBSERVEDSun Jun 14, 21:00 UTC
NOWThu Nov 14, 17:12 UTC
AGE38732:12 hr ago
WINDWNW at 2 mph
VISIBILITY4.3 miles
CONDITIONSlight rain & mist
CLOUDSovercast
TEMP68°F (20°C)
DEWPT68°F (20°C)
HUMIDITY100%
BAROMETER1008 hPa (29.77 in Hg)
METARZUMY 142100Z 29001MPS 2700 -RA BR SCT008 OVC060 20/20 Q1008 NOSIG

Call us on +1-877-727-2538 (24 Hours), Check our Pricing, or Get a Quick Quote.

Find Airports Near any Location

Processing
...